メインページ
METAR-TAF:

METAR-TAF

空港 :

イルクーツク国際空港

イルクーツク, ロシア

緯度: 52-16N, 経度: 104-19E, 海抜: 513m

現時点の気象観測

当レポートは17分前の11:00(UTC)に作成
北東の風 4kt
気温 -14°C
湿度 85%
気圧 1032 hPa
視程10km以上
1,500メートル以下は雲なし、積乱雲なし

METAR: UIII 141100Z 05002MPS CAVOK M14/M16 Q1032 R30/820350 NOSIG RMK QFE728/0971

時間: 19:17 (11:17 UTC)

予報

当レポートは3時間17分前の08:00(UTC)に作成
予報は14日の 09時(UTC)から 15日の 09時(UTC)まで有効
変向風 2kt
視程: 3100m
高度2000ftの雲は散在している
小雪, 煙
14日の 10時(UTC)から 15日の 02時(UTC)まで一時的に
視程: 0300m
高度100ftの
着氷性の霧

TAF: UIII 140800Z 1409/1509 VRB01MPS 3100 -SN FU SCT020 TEMPO 1410/1502 0300 FZFG VV001

4,000以上の空港の気象観測と天気予報(METAR報とTAF報)

利用可能な観測所は地図上に黄色い丸と赤い丸で示す。

丸の上にカーソルを重ねると観測所名を参照できる。

次にクリックすると気象観測と天気予報を参照できる。

マップの切り替え:黒色「×」印の緑ボタンをクリックして拡大、「-」印の緑ボタンをクリックして縮小、緑色の三角印をクリックして隣りの地図に切り替え


METAR-TAF: